Abilene, Kansas
Current Conditions -  °F | °C
As of 6:53 PM on Monday 24 Nov 2014 (Local Time) from KSLN Reporting Station
Clear Clear  
Wind Chill: 31°   Ceiling: Unl
Heat Index: 35°   Visibility: 10mi
Dew Point: 18°   Wind: 5mph
Humidity: 50%   Direction: 10°N
Pressure: 30.04"   Gusts: NA
Location:  38.92°N, 97.21°W
Report Text: KSLN 250053Z 01004KT 10SM CLR 02/M08 A3004 RMK AO2 SLP182 T00171078
Loading
Personal Weather Stations






























Interactive Weather Map New forecast layout! Learn more

10-Day Weather Forecast

Advertisements
Track Severe Weather on mobile